createdAt,value
2022-11-20T00:01:39.270Z,8.77
2022-11-20T00:04:07.695Z,8.25
2022-11-20T00:06:36.996Z,8.35
2022-11-20T00:09:07.698Z,8.73
2022-11-20T00:11:36.000Z,9.10
2022-11-20T00:14:05.702Z,9.18
2022-11-20T00:16:35.466Z,8.27
2022-11-20T00:19:03.947Z,8.02
2022-11-20T00:21:32.721Z,7.90
2022-11-20T00:24:01.413Z,8.10
2022-11-20T00:26:31.736Z,7.82
2022-11-20T00:29:02.816Z,7.60
2022-11-20T00:31:34.109Z,6.72
2022-11-20T00:34:02.515Z,6.78
2022-11-20T00:36:34.287Z,7.63
2022-11-20T00:39:05.039Z,8.02
2022-11-20T00:41:34.841Z,8.45
2022-11-20T00:44:03.265Z,7.57
2022-11-20T00:46:31.814Z,7.50
2022-11-20T00:49:00.203Z,7.47
2022-11-20T00:51:29.623Z,7.10
2022-11-20T00:53:58.787Z,6.85
2022-11-20T00:56:27.898Z,6.55
2022-11-20T00:58:57.712Z,7.15
2022-11-20T01:01:30.259Z,6.85
2022-11-20T01:04:00.271Z,7.72
2022-11-20T01:06:30.930Z,8.43
2022-11-20T01:09:01.294Z,7.35
2022-11-20T01:11:31.149Z,7.63
2022-11-20T01:14:02.093Z,7.20
2022-11-20T01:16:33.259Z,7.03
2022-11-20T01:19:03.265Z,7.63
2022-11-20T01:21:34.141Z,6.80
2022-11-20T01:24:03.895Z,7.03
2022-11-20T01:26:33.916Z,7.72
2022-11-20T01:29:04.413Z,6.82
2022-11-20T01:31:35.075Z,6.90
2022-11-20T01:34:05.286Z,6.38
2022-11-20T01:36:35.406Z,7.72
2022-11-20T01:39:05.940Z,6.43
2022-11-20T01:41:52.917Z,7.40
2022-11-20T01:44:25.262Z,6.35
2022-11-20T01:46:59.443Z,6.72
2022-11-20T01:49:36.093Z,5.97
2022-11-20T01:52:07.663Z,6.75
2022-11-20T01:54:39.731Z,6.85
2022-11-20T01:57:12.221Z,6.43
2022-11-20T01:59:59.217Z,7.07
2022-11-20T02:02:28.777Z,5.63
2022-11-20T02:05:03.633Z,5.53
2022-11-20T02:07:33.295Z,6.20
2022-11-20T02:10:02.019Z,6.00
2022-11-20T02:12:49.216Z,6.03
2022-11-20T02:15:39.018Z,6.63
2022-11-20T02:18:08.421Z,5.90
2022-11-20T02:20:36.786Z,6.13
2022-11-20T02:23:11.695Z,6.40
2022-11-20T02:25:44.353Z,5.63
2022-11-20T02:28:12.711Z,6.07
2022-11-20T02:30:41.383Z,6.57
2022-11-20T02:33:09.686Z,6.22
2022-11-20T02:35:46.654Z,5.97
2022-11-20T02:38:16.197Z,6.72
2022-11-20T02:40:46.117Z,6.68
2022-11-20T02:43:14.470Z,5.63
2022-11-20T02:45:42.757Z,6.13
2022-11-20T02:48:11.331Z,6.65
2022-11-20T02:50:41.222Z,6.15
2022-11-20T02:53:09.530Z,6.07
2022-11-20T02:55:38.419Z,5.82
2022-11-20T02:58:08.246Z,6.70
2022-11-20T03:00:36.872Z,7.15
2022-11-20T03:03:05.767Z,6.22
2022-11-20T03:05:34.187Z,5.97
2022-11-20T03:08:02.518Z,6.38
2022-11-20T03:10:30.969Z,7.07
2022-11-20T03:12:59.494Z,6.72
2022-11-20T03:15:29.254Z,5.63
2022-11-20T03:17:58.035Z,6.10
2022-11-20T03:20:26.309Z,6.55
2022-11-20T03:22:56.706Z,5.80
2022-11-20T03:25:28.156Z,6.13
2022-11-20T03:27:56.717Z,6.07
2022-11-20T03:30:30.422Z,6.13
2022-11-20T03:33:00.848Z,6.70
2022-11-20T03:35:29.798Z,6.28
2022-11-20T03:37:59.289Z,6.45
2022-11-20T03:40:27.814Z,6.47
2022-11-20T03:42:56.099Z,6.72
2022-11-20T03:45:24.372Z,6.22
2022-11-20T03:47:52.995Z,6.35
2022-11-20T03:50:22.662Z,5.95
2022-11-20T03:52:51.037Z,6.30
2022-11-20T03:55:19.705Z,6.28
2022-11-20T03:57:47.985Z,6.35
2022-11-20T04:00:17.239Z,6.00
2022-11-20T04:02:45.786Z,5.63
2022-11-20T04:05:14.150Z,6.50
2022-11-20T04:07:43.957Z,5.72
2022-11-20T04:10:14.809Z,6.00
2022-11-20T04:12:43.469Z,6.22
2022-11-20T04:15:12.175Z,6.32
2022-11-20T04:17:40.619Z,6.30
2022-11-20T04:20:12.302Z,6.50
2022-11-20T04:22:40.723Z,6.78
2022-11-20T04:25:11.049Z,6.28
2022-11-20T04:27:39.320Z,5.97
2022-11-20T04:30:08.712Z,6.25
2022-11-20T04:32:37.429Z,6.43
2022-11-20T04:35:06.377Z,6.35
2022-11-20T04:37:34.826Z,6.22
2022-11-20T04:40:03.154Z,6.80
2022-11-20T04:42:33.392Z,6.55
2022-11-20T04:45:01.818Z,6.38
2022-11-20T04:47:32.361Z,6.35
2022-11-20T04:50:00.782Z,6.65
2022-11-20T04:52:31.634Z,6.40
2022-11-20T04:55:00.259Z,6.70
2022-11-20T04:57:28.500Z,6.32
2022-11-20T04:59:58.317Z,6.55
2022-11-20T05:02:27.148Z,6.90
2022-11-20T05:04:55.422Z,6.18
2022-11-20T05:07:23.740Z,7.50
2022-11-20T05:09:52.174Z,6.78
2022-11-20T05:12:20.640Z,7.28
2022-11-20T05:14:50.255Z,6.97
2022-11-20T05:17:20.083Z,7.72
2022-11-20T05:19:52.020Z,7.60
2022-11-20T05:22:21.672Z,7.20
2022-11-20T05:24:50.040Z,7.38
2022-11-20T05:27:18.654Z,7.82
2022-11-20T05:29:46.900Z,7.13
2022-11-20T05:32:15.437Z,7.82
2022-11-20T05:34:45.383Z,7.57
2022-11-20T05:37:13.783Z,7.28
2022-11-20T05:39:42.179Z,8.80
2022-11-20T05:42:27.696Z,7.50
2022-11-20T05:44:56.082Z,7.47
2022-11-20T05:47:25.301Z,7.50
2022-11-20T05:49:55.220Z,7.50
2022-11-20T05:52:23.611Z,8.55
2022-11-20T05:54:52.185Z,6.90
2022-11-20T05:57:20.471Z,7.32
2022-11-20T05:59:48.895Z,7.90
2022-11-20T06:02:18.461Z,8.27
2022-11-20T06:04:47.236Z,7.90
2022-11-20T06:07:17.075Z,8.35
2022-11-20T06:09:45.487Z,8.63
2022-11-20T06:12:13.829Z,8.38
2022-11-20T06:14:42.099Z,8.25
2022-11-20T06:17:10.475Z,8.10
2022-11-20T06:19:38.866Z,8.10
2022-11-20T06:22:07.153Z,9.10
2022-11-20T06:24:36.896Z,8.13
2022-11-20T06:27:05.383Z,8.40
2022-11-20T06:29:34.225Z,7.95
2022-11-20T06:32:02.903Z,8.02
2022-11-20T06:34:31.261Z,8.40
2022-11-20T06:36:59.599Z,8.95
2022-11-20T06:39:27.980Z,9.63
2022-11-20T06:41:59.154Z,8.27
2022-11-20T06:44:27.957Z,8.88
2022-11-20T06:46:56.316Z,8.35
2022-11-20T06:49:24.853Z,8.63
2022-11-20T06:51:53.415Z,9.15
2022-11-20T06:54:22.290Z,8.85
2022-11-20T06:56:50.660Z,9.15
2022-11-20T06:59:20.842Z,8.55
2022-11-20T07:01:50.354Z,10.05
2022-11-20T07:04:18.928Z,8.35
2022-11-20T07:06:47.205Z,8.73
2022-11-20T07:09:15.838Z,9.50
2022-11-20T07:11:44.206Z,8.63
2022-11-20T07:14:12.752Z,8.50
2022-11-20T07:16:43.759Z,9.80
2022-11-20T07:19:12.805Z,8.90
2022-11-20T07:21:41.182Z,8.88
2022-11-20T07:24:09.710Z,9.05
2022-11-20T07:26:38.209Z,8.93
2022-11-20T07:29:06.775Z,8.98
2022-11-20T07:31:35.934Z,11.60
2022-11-20T07:34:05.702Z,10.18
2022-11-20T07:36:34.041Z,8.80
2022-11-20T07:39:02.553Z,9.48
2022-11-20T07:41:31.062Z,10.35
2022-11-20T07:43:59.387Z,8.95
2022-11-20T07:46:27.901Z,9.95
2022-11-20T07:48:56.353Z,9.30
2022-11-20T07:51:26.991Z,10.80
2022-11-20T07:53:55.619Z,10.13
2022-11-20T07:56:26.326Z,10.15
2022-11-20T07:58:54.673Z,10.18
2022-11-20T08:01:23.005Z,11.52
2022-11-20T08:03:51.450Z,10.63
2022-11-20T08:06:21.237Z,10.52
2022-11-20T08:08:51.122Z,11.13
2022-11-20T08:11:37.013Z,10.32
2022-11-20T08:14:14.786Z,9.30
2022-11-20T08:16:44.841Z,10.13
2022-11-20T08:19:13.828Z,16.52
2022-11-20T08:21:42.592Z,17.73
2022-11-20T08:24:12.786Z,17.30
2022-11-20T08:26:42.300Z,14.85
2022-11-20T08:29:11.155Z,13.60
2022-11-20T08:31:39.536Z,12.27
2022-11-20T08:34:09.524Z,11.50
2022-11-20T08:36:38.884Z,13.95
2022-11-20T08:39:15.691Z,12.73
2022-11-20T08:41:44.034Z,13.40
2022-11-20T08:44:13.051Z,15.27
2022-11-20T08:46:44.657Z,13.60
2022-11-20T08:49:16.241Z,15.05
2022-11-20T08:51:44.967Z,13.60
2022-11-20T08:54:13.613Z,13.30
2022-11-20T08:56:43.423Z,12.93
2022-11-20T08:59:36.732Z,13.32
2022-11-20T09:02:00.766Z,12.27
2022-11-20T09:04:29.380Z,13.73
2022-11-20T09:06:58.350Z,15.85
2022-11-20T09:09:26.721Z,14.48
2022-11-20T09:11:56.601Z,22.85
2022-11-20T09:14:30.002Z,20.42
2022-11-20T09:16:59.713Z,19.23
2022-11-20T09:19:35.439Z,20.25
2022-11-20T09:22:09.335Z,17.55
2022-11-20T09:24:37.930Z,15.25
2022-11-20T09:27:08.650Z,14.98
2022-11-20T09:29:37.697Z,19.00
2022-11-20T09:32:08.098Z,17.65
2022-11-20T09:34:36.479Z,21.17
2022-11-20T09:37:07.730Z,18.00
2022-11-20T09:39:39.980Z,16.25
2022-11-20T09:42:35.185Z,15.02
2022-11-20T09:45:21.489Z,14.27
2022-11-20T09:48:05.505Z,14.55
2022-11-20T09:50:38.192Z,14.10
2022-11-20T09:53:18.618Z,12.82
2022-11-20T09:55:48.941Z,14.57
2022-11-20T09:58:30.453Z,13.50
2022-11-20T10:01:08.410Z,14.30
2022-11-20T10:03:44.063Z,15.10
2022-11-20T10:06:17.807Z,15.35
2022-11-20T10:08:53.053Z,15.38
2022-11-20T10:11:31.571Z,17.40
2022-11-20T10:14:09.892Z,15.85
2022-11-20T10:16:47.059Z,16.05
2022-11-20T10:19:35.188Z,16.65
2022-11-20T10:22:15.459Z,17.42
2022-11-20T10:24:57.149Z,17.70
2022-11-20T10:27:51.150Z,17.65
2022-11-20T10:30:26.253Z,17.90
2022-11-20T10:32:57.638Z,17.50
2022-11-20T10:35:30.962Z,16.50
2022-11-20T10:38:02.550Z,17.25
2022-11-20T10:40:37.617Z,18.02
2022-11-20T10:43:14.634Z,18.02
2022-11-20T10:45:53.303Z,16.25
2022-11-20T10:48:24.575Z,16.27
2022-11-20T10:51:05.382Z,17.58
2022-11-20T10:53:48.668Z,14.55
2022-11-20T10:56:22.474Z,15.82
2022-11-20T10:59:02.306Z,16.20
2022-11-20T11:01:32.185Z,16.48
2022-11-20T11:04:01.138Z,15.77
2022-11-20T11:06:36.751Z,15.80
2022-11-20T11:09:24.583Z,16.08
2022-11-20T11:11:53.441Z,14.45
2022-11-20T11:14:21.902Z,14.85
2022-11-20T11:16:56.700Z,13.15
2022-11-20T11:19:26.234Z,11.40
2022-11-20T11:21:57.626Z,11.40
2022-11-20T11:24:42.361Z,11.98
2022-11-20T11:27:17.155Z,11.20
2022-11-20T11:29:46.316Z,10.10
2022-11-20T11:32:18.512Z,10.65
2022-11-20T11:34:49.820Z,10.00
2022-11-20T11:37:22.616Z,11.15
2022-11-20T11:40:03.820Z,10.27
2022-11-20T11:42:45.045Z,9.65
2022-11-20T11:45:19.767Z,8.98
2022-11-20T11:47:50.809Z,8.82
2022-11-20T11:50:22.956Z,10.02
2022-11-20T11:52:58.719Z,9.13
2022-11-20T11:55:33.815Z,9.35
2022-11-20T11:58:13.480Z,8.90
2022-11-20T12:00:47.917Z,9.23
2022-11-20T12:03:22.837Z,9.88
2022-11-20T12:05:58.055Z,9.18
2022-11-20T12:08:30.380Z,10.85
2022-11-20T12:11:03.245Z,9.13
2022-11-20T12:13:51.089Z,9.75
2022-11-20T12:16:22.777Z,9.88
2022-11-20T12:18:55.207Z,8.73
2022-11-20T12:21:34.286Z,8.85
2022-11-20T12:24:17.356Z,9.82
2022-11-20T12:27:02.732Z,9.25
2022-11-20T12:29:44.521Z,9.15
2022-11-20T12:32:39.661Z,13.40
2022-11-20T12:35:25.312Z,9.23
2022-11-20T12:38:04.086Z,8.80
2022-11-20T12:40:43.678Z,9.10
2022-11-20T12:43:39.209Z,8.40
2022-11-20T12:46:25.808Z,11.23
2022-11-20T12:49:27.398Z,10.07
2022-11-20T12:52:22.561Z,12.85
2022-11-20T12:55:16.038Z,11.57
2022-11-20T12:57:52.219Z,10.35
2022-11-20T13:00:23.626Z,9.75
2022-11-20T13:03:21.410Z,10.55
2022-11-20T13:05:58.371Z,11.80
2022-11-20T13:08:32.018Z,14.77
2022-11-20T13:11:09.871Z,11.88
2022-11-20T13:13:47.980Z,10.55
2022-11-20T13:16:22.116Z,10.23
2022-11-20T13:18:50.805Z,9.43
2022-11-20T13:21:21.571Z,10.15
2022-11-20T13:23:51.662Z,14.85
2022-11-20T13:26:24.689Z,9.63
2022-11-20T13:29:05.300Z,9.73
2022-11-20T13:31:37.266Z,9.15
2022-11-20T13:34:10.190Z,8.93
2022-11-20T13:36:38.644Z,9.45
2022-11-20T13:39:08.574Z,9.00
2022-11-20T13:41:39.072Z,8.02
2022-11-20T13:44:18.502Z,7.72
2022-11-20T13:46:49.032Z,7.68
2022-11-20T13:49:23.341Z,7.93
2022-11-20T13:51:53.422Z,6.95
2022-11-20T13:55:00.375Z,8.10
2022-11-20T13:58:12.852Z,7.95
2022-11-20T14:00:52.875Z,8.82
2022-11-20T14:03:44.268Z,8.40
2022-11-20T14:06:20.152Z,9.18
2022-11-20T14:08:51.748Z,9.48
2022-11-20T14:11:22.610Z,10.95
2022-11-20T14:14:00.874Z,10.82
2022-11-20T14:16:31.015Z,9.68
2022-11-20T14:19:00.713Z,9.35
2022-11-20T14:21:31.687Z,8.30
2022-11-20T14:24:07.244Z,9.20
2022-11-20T14:26:36.285Z,8.80
2022-11-20T14:29:06.657Z,8.65
2022-11-20T14:31:35.166Z,9.13
2022-11-20T14:34:05.171Z,8.25
2022-11-20T14:36:33.649Z,8.63
2022-11-20T14:39:02.010Z,8.02
2022-11-20T14:41:33.289Z,8.23
2022-11-20T14:44:03.167Z,7.65
2022-11-20T14:46:35.563Z,9.10
2022-11-20T14:49:06.770Z,8.55
2022-11-20T14:51:39.329Z,8.48
2022-11-20T14:54:14.181Z,9.35
2022-11-20T14:56:43.205Z,9.20
2022-11-20T14:59:11.842Z,9.75
2022-11-20T15:01:41.845Z,10.57
2022-11-20T15:04:13.176Z,12.02
2022-11-20T15:06:52.938Z,11.35
2022-11-20T15:09:23.605Z,12.05
2022-11-20T15:11:57.799Z,11.32
2022-11-20T15:14:27.150Z,11.82
2022-11-20T15:16:57.276Z,11.05
2022-11-20T15:19:28.671Z,11.88
2022-11-20T15:21:57.418Z,12.13
2022-11-20T15:24:26.115Z,12.60
2022-11-20T15:26:54.762Z,12.57
2022-11-20T15:29:25.954Z,10.68
2022-11-20T15:31:55.331Z,10.73
2022-11-20T15:34:25.272Z,10.93
2022-11-20T15:36:54.120Z,10.15
2022-11-20T15:39:22.790Z,10.85
2022-11-20T15:41:51.229Z,10.02
2022-11-20T15:44:19.776Z,11.77
2022-11-20T15:46:48.351Z,10.45
2022-11-20T15:49:20.024Z,11.25
2022-11-20T15:51:53.766Z,11.68
2022-11-20T15:54:24.310Z,10.80
2022-11-20T15:56:53.996Z,10.85
2022-11-20T15:59:22.898Z,10.63
2022-11-20T16:01:51.656Z,11.60
2022-11-20T16:04:20.948Z,11.90
2022-11-20T16:06:52.118Z,12.15
2022-11-20T16:09:21.420Z,10.52
2022-11-20T16:11:49.739Z,9.95
2022-11-20T16:14:35.402Z,9.05
2022-11-20T16:17:04.146Z,11.23
2022-11-20T16:19:32.647Z,9.55
2022-11-20T16:22:03.413Z,9.48
2022-11-20T16:24:32.128Z,11.77
2022-11-20T16:27:00.925Z,11.07
2022-11-20T16:29:29.755Z,10.48
2022-11-20T16:32:01.510Z,10.45
2022-11-20T16:34:30.984Z,10.07
2022-11-20T16:36:59.982Z,10.30
2022-11-20T16:39:29.778Z,9.93
2022-11-20T16:41:58.245Z,10.23
2022-11-20T16:44:26.970Z,10.15
2022-11-20T16:46:56.039Z,9.65
2022-11-20T16:49:24.967Z,9.82
2022-11-20T16:51:53.344Z,9.75
2022-11-20T16:54:23.420Z,9.98
2022-11-20T16:56:54.324Z,9.43
2022-11-20T16:59:22.728Z,9.57
2022-11-20T17:01:51.162Z,10.02
2022-11-20T17:04:19.667Z,10.48
2022-11-20T17:06:48.122Z,9.73
2022-11-20T17:09:16.738Z,9.25
2022-11-20T17:11:45.283Z,9.95
2022-11-20T17:14:16.864Z,9.95
2022-11-20T17:16:45.357Z,9.65
2022-11-20T17:19:16.044Z,9.50
2022-11-20T17:21:44.594Z,9.00
2022-11-20T17:24:15.985Z,9.98
2022-11-20T17:26:46.851Z,9.63
2022-11-20T17:29:19.020Z,8.80
2022-11-20T17:31:48.764Z,8.55
2022-11-20T17:34:17.550Z,9.27
2022-11-20T17:36:46.675Z,9.60
2022-11-20T17:39:15.686Z,9.57
2022-11-20T17:41:44.842Z,9.93
2022-11-20T17:44:14.040Z,8.50
2022-11-20T17:46:43.838Z,9.82
2022-11-20T17:49:12.218Z,9.85
2022-11-20T17:51:42.152Z,10.23
2022-11-20T17:54:13.828Z,9.98
2022-11-20T17:56:59.492Z,9.63
2022-11-20T17:59:27.944Z,10.35
2022-11-20T18:02:13.810Z,10.25
2022-11-20T18:04:42.330Z,9.20
2022-11-20T18:07:10.952Z,9.02
2022-11-20T18:09:39.659Z,8.10
2022-11-20T18:12:08.877Z,8.88
2022-11-20T18:14:37.325Z,8.90
2022-11-20T18:17:10.573Z,8.52
2022-11-20T18:19:55.278Z,6.30
2022-11-20T18:22:32.367Z,8.20
2022-11-20T18:25:01.176Z,6.82
2022-11-20T18:27:29.537Z,8.15
2022-11-20T18:29:59.957Z,8.18
2022-11-20T18:32:31.065Z,8.95
2022-11-20T18:34:59.416Z,7.05
2022-11-20T18:37:28.068Z,7.45
2022-11-20T18:39:57.085Z,6.95
2022-11-20T18:42:43.084Z,6.63
2022-11-20T18:45:11.837Z,6.55
2022-11-20T18:47:41.617Z,7.30
2022-11-20T18:50:10.853Z,8.27
2022-11-20T18:52:45.481Z,8.82
2022-11-20T18:55:14.630Z,8.60
2022-11-20T18:57:43.022Z,9.00
2022-11-20T19:00:12.848Z,10.20
2022-11-20T19:02:43.567Z,11.63
2022-11-20T19:05:13.233Z,10.65
2022-11-20T19:07:42.477Z,10.40
2022-11-20T19:10:11.478Z,10.88
2022-11-20T19:12:41.319Z,10.88
2022-11-20T19:15:10.238Z,12.27
2022-11-20T19:17:38.583Z,11.75
2022-11-20T19:20:10.105Z,12.70
2022-11-20T19:22:38.616Z,12.88
2022-11-20T19:25:08.010Z,12.35
2022-11-20T19:27:38.838Z,13.52
2022-11-20T19:30:08.120Z,12.73
2022-11-20T19:32:37.035Z,14.13
2022-11-20T19:35:08.763Z,13.75
2022-11-20T19:37:37.432Z,13.75
2022-11-20T19:40:06.410Z,14.15
2022-11-20T19:42:34.841Z,14.20
2022-11-20T19:45:03.583Z,16.08
2022-11-20T19:48:05.954Z,15.15
2022-11-20T19:50:25.560Z,14.90
2022-11-20T19:52:58.518Z,13.68
2022-11-20T19:57:56.627Z,13.88
2022-11-20T20:00:32.212Z,13.95
2022-11-20T20:03:01.972Z,12.77
2022-11-20T20:05:31.738Z,14.43
2022-11-20T20:08:00.082Z,13.85
2022-11-20T20:10:28.964Z,14.25
2022-11-20T20:12:57.701Z,14.15
2022-11-20T20:15:28.426Z,15.38
2022-11-20T20:17:56.941Z,13.57
2022-11-20T20:20:25.962Z,14.82
2022-11-20T20:22:55.654Z,14.40
2022-11-20T20:25:24.063Z,13.82
2022-11-20T20:27:52.530Z,14.05
2022-11-20T20:30:20.985Z,14.60
2022-11-20T20:32:54.781Z,13.00
2022-11-20T20:35:24.752Z,14.82
2022-11-20T20:37:53.313Z,13.45
2022-11-20T20:40:23.165Z,13.75
2022-11-20T20:42:51.522Z,12.65
2022-11-20T20:45:20.030Z,14.10
2022-11-20T20:47:48.325Z,13.77
2022-11-20T20:50:16.863Z,13.90
2022-11-20T20:52:45.829Z,13.68
2022-11-20T20:55:14.395Z,12.85
2022-11-20T20:57:44.283Z,13.77
2022-11-20T21:00:13.173Z,11.98
2022-11-20T21:02:41.549Z,12.23
2022-11-20T21:05:10.956Z,11.82
2022-11-20T21:07:59.717Z,12.60
2022-11-20T21:10:28.313Z,11.63
2022-11-20T21:12:58.022Z,11.10
2022-11-20T21:15:26.352Z,10.98
2022-11-20T21:17:55.848Z,10.80
2022-11-20T21:20:41.617Z,10.88
2022-11-20T21:23:11.093Z,9.02
2022-11-20T21:25:40.695Z,10.77
2022-11-20T21:28:14.333Z,10.32
2022-11-20T21:30:45.266Z,10.38
2022-11-20T21:33:13.884Z,10.90
2022-11-20T21:35:43.590Z,10.70
2022-11-20T21:38:12.013Z,10.23
2022-11-20T21:40:40.644Z,10.75
2022-11-20T21:43:10.372Z,13.73
2022-11-20T21:45:38.669Z,16.13
2022-11-20T21:48:07.816Z,12.80
2022-11-20T21:50:36.170Z,12.35
2022-11-20T21:53:04.609Z,11.90
2022-11-20T21:55:33.161Z,12.15
2022-11-20T21:58:01.472Z,11.57
2022-11-20T22:00:31.260Z,12.73
2022-11-20T22:02:59.667Z,13.18
2022-11-20T22:05:29.494Z,13.65
2022-11-20T22:07:57.813Z,12.15
2022-11-20T22:10:27.985Z,13.32
2022-11-20T22:13:17.247Z,13.35
2022-11-20T22:16:00.332Z,12.27
2022-11-20T22:18:29.382Z,12.20
2022-11-20T22:20:57.934Z,11.68
2022-11-20T22:23:26.547Z,11.18
2022-11-20T22:25:54.965Z,12.50
2022-11-20T22:28:23.730Z,12.07
2022-11-20T22:30:54.909Z,11.07
2022-11-20T22:33:27.355Z,10.30
2022-11-20T22:36:02.437Z,10.13
2022-11-20T22:38:39.035Z,9.30
2022-11-20T22:41:15.969Z,9.55
2022-11-20T22:43:46.868Z,10.95
2022-11-20T22:46:20.059Z,10.32
2022-11-20T22:48:54.994Z,10.02
2022-11-20T22:51:28.567Z,10.70
2022-11-20T22:53:57.631Z,10.95
2022-11-20T22:56:35.730Z,10.50
2022-11-20T22:59:06.836Z,11.05
2022-11-20T23:01:38.105Z,11.45
2022-11-20T23:04:10.183Z,12.35
2022-11-20T23:06:39.615Z,12.23
2022-11-20T23:09:09.434Z,11.10
2022-11-20T23:11:39.059Z,10.82
2022-11-20T23:14:12.854Z,11.65
2022-11-20T23:16:51.268Z,10.88
2022-11-20T23:19:23.530Z,11.68
2022-11-20T23:21:56.243Z,15.23
2022-11-20T23:24:37.805Z,11.38
2022-11-20T23:27:18.896Z,11.85
2022-11-20T23:29:49.790Z,12.25
2022-11-20T23:32:19.648Z,12.25
2022-11-20T23:34:48.467Z,10.65
2022-11-20T23:37:21.607Z,11.02
2022-11-20T23:43:04.248Z,11.48
2022-11-20T23:45:47.805Z,11.38
2022-11-20T23:49:16.816Z,12.10
2022-11-20T23:51:52.816Z,10.45
2022-11-20T23:54:21.275Z,10.93
2022-11-20T23:56:50.517Z,11.20
2022-11-20T23:59:19.263Z,10.52
